createdAt,value
2019-01-17T01:00:51.712Z,7.85
2019-01-17T01:05:54.877Z,7.76
2019-01-17T01:10:57.032Z,7.84
2019-01-17T01:16:04.426Z,7.69
2019-01-17T01:21:09.897Z,7.84
2019-01-17T01:26:13.409Z,7.84
2019-01-17T02:34:36.284Z,7.43
2019-01-17T02:39:38.315Z,7.46
2019-01-17T02:44:39.583Z,7.62
2019-01-17T02:49:40.879Z,7.55
2019-01-17T02:54:42.172Z,7.78
2019-01-17T02:59:43.481Z,7.76
2019-01-17T04:01:45.672Z,7.68
2019-01-17T04:06:46.940Z,7.84
2019-01-17T04:11:48.261Z,7.84
2019-01-17T04:16:50.374Z,7.71
2019-01-17T04:21:51.680Z,7.60
2019-01-17T04:26:53.002Z,7.78
2019-01-17T05:35:14.728Z,7.77
2019-01-17T05:40:16.287Z,7.70
2019-01-17T05:45:17.669Z,7.59
2019-01-17T05:50:19.893Z,7.59
2019-01-17T05:55:21.326Z,7.42
2019-01-17T06:00:22.759Z,7.55
2019-01-17T07:02:25.457Z,8.17
2019-01-17T07:07:26.767Z,8.29
2019-01-17T07:12:28.058Z,8.56
2019-01-17T07:17:29.367Z,8.59
2019-01-17T07:22:30.672Z,8.51
2019-01-17T07:27:32.776Z,8.46
2019-01-17T08:35:54.548Z,9.18
2019-01-17T08:40:55.836Z,9.11
2019-01-17T08:45:57.116Z,9.33
2019-01-17T08:50:58.385Z,9.40
2019-01-17T08:56:00.930Z,9.83
2019-01-17T10:04:22.102Z,10.28
2019-01-17T10:09:22.292Z,10.30
2019-01-17T10:14:23.609Z,10.32
2019-01-17T10:19:29.904Z,10.44
2019-01-17T10:24:36.829Z,10.49
2019-01-17T10:29:46.950Z,10.48
2019-01-17T11:31:58.915Z,10.40
2019-01-17T11:43:06.329Z,10.86
2019-01-17T11:54:09.621Z,10.44
2019-01-17T11:59:15.768Z,10.41
2019-01-17T13:01:20.920Z,9.70
2019-01-17T13:06:22.189Z,9.51
2019-01-17T13:11:23.467Z,9.30
2019-01-17T13:16:25.579Z,9.41
2019-01-17T13:21:26.861Z,9.57
2019-01-17T13:26:28.975Z,9.35
2019-01-17T14:34:51.381Z,8.71
2019-01-17T14:39:52.649Z,8.64
2019-01-17T14:44:53.906Z,8.54
2019-01-17T14:49:55.191Z,8.27
2019-01-17T14:54:56.465Z,8.40
2019-01-17T14:59:57.735Z,8.71
2019-01-17T16:01:59.173Z,7.72
2019-01-17T16:07:00.444Z,7.93
2019-01-17T16:12:01.721Z,7.82
2019-01-17T16:17:03.729Z,7.70
2019-01-17T16:22:05.038Z,7.65
2019-01-17T16:27:06.337Z,7.67
2019-01-17T16:32:07.603Z,7.42
2019-01-17T16:37:08.911Z,7.60
2019-01-17T16:42:10.206Z,7.48
2019-01-17T16:47:12.241Z,7.46
2019-01-17T16:52:13.559Z,7.65
2019-01-17T16:57:15.595Z,7.72
2019-01-17T17:02:16.890Z,7.44
2019-01-17T17:07:18.964Z,7.34
2019-01-17T17:12:20.273Z,7.17
2019-01-17T17:17:25.235Z,7.23
2019-01-17T17:22:26.537Z,7.36
2019-01-17T17:27:27.828Z,7.15
2019-01-17T17:32:29.364Z,7.33
2019-01-17T17:37:32.489Z,7.17
2019-01-17T17:42:48.730Z,7.16
2019-01-17T17:47:50.047Z,7.12
2019-01-17T17:52:51.338Z,7.32
2019-01-17T17:57:52.626Z,7.62
2019-01-17T18:02:53.960Z,7.40
2019-01-17T18:07:55.266Z,7.67
2019-01-17T18:13:05.428Z,7.36
2019-01-17T18:18:06.890Z,7.26
2019-01-17T18:23:08.187Z,7.29
2019-01-17T18:28:09.502Z,7.00
2019-01-17T18:33:37.551Z,7.15
2019-01-17T18:38:49.407Z,7.21
2019-01-17T18:43:50.708Z,7.13
2019-01-17T18:48:52.034Z,7.28
2019-01-17T18:53:53.347Z,7.07
2019-01-17T18:58:54.793Z,7.19
2019-01-17T19:03:56.155Z,7.22
2019-01-17T19:08:57.488Z,7.20
2019-01-17T19:14:10.704Z,7.07
2019-01-17T19:19:12.766Z,7.00
2019-01-17T19:24:14.097Z,7.05
2019-01-17T19:29:15.391Z,6.83
2019-01-17T19:34:16.757Z,6.86
2019-01-17T19:39:18.040Z,6.83
2019-01-17T19:44:23.537Z,6.73
2019-01-17T19:49:25.040Z,6.61
2019-01-17T19:54:28.415Z,6.65
2019-01-17T19:59:29.853Z,6.61
2019-01-17T20:04:41.669Z,6.70
2019-01-17T20:09:38.927Z,6.58
2019-01-17T20:14:41.366Z,6.86
2019-01-17T20:19:42.668Z,6.61
2019-01-17T20:24:50.728Z,6.60
2019-01-17T20:29:52.049Z,6.63
2019-01-17T20:34:54.112Z,6.72
2019-01-17T20:40:08.692Z,6.75
2019-01-17T20:45:12.057Z,6.53
2019-01-17T20:50:14.212Z,6.43
2019-01-17T20:55:15.613Z,6.69
2019-01-17T21:05:49.566Z,6.33
2019-01-17T21:11:27.770Z,6.45
2019-01-17T21:16:46.591Z,6.51
2019-01-17T21:21:47.911Z,6.32
2019-01-17T21:26:58.046Z,6.15
2019-01-17T21:32:03.772Z,5.95
2019-01-17T21:37:05.081Z,6.17
2019-01-17T21:42:06.405Z,6.17
2019-01-17T21:47:08.179Z,5.69
2019-01-17T21:52:09.516Z,5.57
2019-01-17T21:57:22.146Z,5.27
2019-01-17T22:02:23.506Z,5.38
2019-01-17T22:07:28.370Z,4.89
2019-01-17T22:12:37.099Z,5.52
2019-01-17T22:17:38.402Z,5.63
2019-01-17T22:22:39.672Z,5.81
2019-01-17T22:27:43.011Z,5.35
2019-01-17T22:32:51.558Z,5.05
2019-01-17T22:38:06.454Z,4.90
2019-01-17T22:43:07.767Z,4.93
2019-01-17T22:48:09.077Z,4.95
2019-01-17T22:53:10.390Z,4.67
2019-01-17T22:58:12.450Z,4.80
2019-01-17T23:34:53.285Z,4.98
2019-01-17T23:39:55.339Z,5.30
2019-01-17T23:44:56.657Z,5.12
2019-01-17T23:49:58.041Z,5.24
2019-01-17T23:54:59.317Z,5.22
